Terminal Aerodrome Forecast
Issued by NWS Newport/Morehead City, NC

Home | Current Version | Previous Version | Text Only | Print | Product List | Glossary On
Versions: 1 2 3 4 5 6 7 8 9 10 11 12 13 14
000
FTUS42 KMHX 152338
TAFEWN
TAF
KEWN 152338Z 1600/1624 19005KT P6SM SKC
     FM160900 VRB03KT 3SM BR BKN006
     FM161300 31006KT P6SM VCSH OVC015
     FM161900 01010G19KT 6SM -SHRA OVC020
     FM162300 01009KT P6SM BKN025=

USA.gov is the U.S. government's official web portal to all federal, state and local government web resources and services.